Time;durP1;ratioP1;P1;durP2;ratioP2;P2;SDS_P1;SDS_P2;PMS_P1;PMS_P2;Temp;Humidity;BMP_temperature;BMP_pressure;BME280_temperature;BME280_humidity;BME280_pressure;Samples;Min_cycle;Max_cycle;Signal;HPM_P1;HPM_P2
2023/12/15 00:01:10;;;;;;;1.58;0.35;;;;;;;34.10;23.73;100944.19;7392135;19;20078;-88
2023/12/15 00:03:36;;;;;;;5.32;1.00;;;;;;;34.05;23.80;100957.63;7392528;19;20006;-89
2023/12/15 00:06:03;;;;;;;0.20;0.05;;;;;;;33.99;23.76;100948.50;7392425;19;20481;-89
2023/12/15 00:08:29;;;;;;;7.15;0.93;;;;;;;33.87;23.90;100947.63;7390513;19;20117;-89
2023/12/15 00:10:55;;;;;;;0.10;0.00;;;;;;;33.87;23.69;100964.97;7391968;19;20062;-87
2023/12/15 00:13:21;;;;;;;1.70;0.55;;;;;;;33.73;24.23;100966.84;7389813;19;20048;-89
2023/12/15 00:15:48;;;;;;;1.40;0.98;;;;;;;33.61;23.86;100965.97;7392087;19;20074;-90
2023/12/15 00:18:14;;;;;;;0.17;0.17;;;;;;;33.57;23.88;100971.44;7393754;19;20019;-89
2023/12/15 00:20:43;;;;;;;0.30;0.30;;;;;;;33.56;24.06;100958.38;7392606;19;20017;-89
2023/12/15 00:23:09;;;;;;;1.67;0.80;;;;;;;33.46;23.90;100963.38;7393725;19;20014;-88
2023/12/15 00:25:35;;;;;;;1.00;0.10;;;;;;;33.49;23.68;100965.03;7393571;19;20002;-87
2023/12/15 00:28:02;;;;;;;1.23;0.50;;;;;;;33.47;23.59;100979.34;7391591;19;20088;-91
2023/12/15 00:30:28;;;;;;;0.10;0.10;;;;;;;33.29;23.69;100975.88;7393219;19;20014;-88
2023/12/15 00:32:54;;;;;;;0.93;0.52;;;;;;;33.36;23.91;100968.41;7394157;19;20026;-90
2023/12/15 00:35:20;;;;;;;0.75;0.20;;;;;;;33.39;23.82;100972.97;7389539;19;20018;-89
2023/12/15 00:37:47;;;;;;;1.73;0.98;;;;;;;33.39;23.70;100975.88;7391541;19;20013;-88
2023/12/15 00:40:13;;;;;;;0.10;0.10;;;;;;;33.34;23.83;100976.91;7391195;19;20121;-88
2023/12/15 00:42:39;;;;;;;0.40;0.40;;;;;;;33.42;23.45;100971.72;7390911;19;20014;-86
2023/12/15 00:45:06;;;;;;;0.20;0.10;;;;;;;33.49;23.82;100968.69;7390795;19;20007;-88
2023/12/15 00:47:32;;;;;;;6.28;1.30;;;;;;;33.45;23.75;100982.06;7389919;19;20043;-90
2023/12/15 00:50:01;;;;;;;0.10;0.05;;;;;;;33.33;23.66;100981.94;7393144;19;20018;-91
2023/12/15 00:52:27;;;;;;;2.92;0.30;;;;;;;33.27;23.52;100995.16;7390409;19;20013;-90
2023/12/15 00:54:53;;;;;;;0.30;0.20;;;;;;;33.21;23.64;100991.81;7393433;19;20015;-91
2023/12/15 00:57:23;;;;;;;1.20;1.10;;;;;;;33.19;23.81;101000.34;7392935;19;20015;-91
2023/12/15 00:59:51;;;;;;;0.55;0.50;;;;;;;33.19;23.66;101017.66;7390871;19;20010;-90
2023/12/15 01:02:17;;;;;;;0.10;0.10;;;;;;;33.24;23.93;101019.50;7389198;19;20020;-89
2023/12/15 01:04:43;;;;;;;0.10;0.10;;;;;;;33.33;23.74;101024.53;7392375;19;20078;-89
2023/12/15 01:07:10;;;;;;;2.00;0.50;;;;;;;33.41;23.64;101022.22;7392353;19;20062;-89
2023/12/15 01:09:37;;;;;;;0.10;0.10;;;;;;;33.45;23.62;101023.28;7392945;19;20010;-89
2023/12/15 01:12:04;;;;;;;9.13;0.43;;;;;;;33.47;23.53;101031.34;7391067;19;20010;-89
2023/12/15 01:14:30;;;;;;;0.47;0.38;;;;;;;33.36;23.59;101029.81;7391980;19;20034;-89
2023/12/15 01:16:56;;;;;;;1.55;0.20;;;;;;;33.10;23.72;101032.84;7391174;19;20042;-89
2023/12/15 01:19:22;;;;;;;0.55;0.55;;;;;;;33.14;23.78;101033.94;7393408;19;20035;-88
2023/12/15 01:21:49;;;;;;;1.95;0.57;;;;;;;33.16;23.96;101039.84;7394410;19;20481;-89
2023/12/15 01:24:15;;;;;;;0.68;0.57;;;;;;;33.06;24.08;101032.56;7391960;19;20010;-89
2023/12/15 01:26:41;;;;;;;4.28;0.47;;;;;;;32.85;24.06;101042.50;7389335;19;20006;-89
2023/12/15 01:29:07;;;;;;;0.15;0.15;;;;;;;33.03;24.17;101051.09;7391987;19;20014;-90
2023/12/15 01:31:33;;;;;;;0.65;0.65;;;;;;;33.02;24.07;101046.69;7390073;19;20481;-90
2023/12/15 01:34:00;;;;;;;3.22;0.40;;;;;;;33.17;24.09;101037.72;7390159;19;20501;-89
2023/12/15 01:36:28;;;;;;;0.30;0.20;;;;;;;33.35;23.95;101039.84;7390052;19;20272;-89
2023/12/15 01:38:56;;;;;;;0.28;0.25;;;;;;;33.50;23.91;101044.56;7390294;19;20019;-90
2023/12/15 01:41:22;;;;;;;0.20;0.20;;;;;;;33.58;23.85;101053.88;7389923;19;20023;-89
2023/12/15 01:43:48;;;;;;;0.22;0.13;;;;;;;33.67;23.66;101058.13;7393604;19;20018;-89
2023/12/15 01:46:14;;;;;;;1.65;0.75;;;;;;;33.68;23.75;101062.53;7392200;19;20014;-89
2023/12/15 01:48:41;;;;;;;0.20;0.20;;;;;;;33.73;23.79;101059.31;7395094;19;20010;-89
2023/12/15 01:51:08;;;;;;;0.10;0.10;;;;;;;33.74;23.48;101062.97;7395544;19;20069;-90
2023/12/15 01:53:34;;;;;;;0.10;0.10;;;;;;;33.49;23.51;101060.38;7394808;19;20469;-90
2023/12/15 01:56:00;;;;;;;0.40;0.40;;;;;;;33.36;23.61;101066.63;7397243;19;20018;-90
2023/12/15 01:58:26;;;;;;;0.30;0.30;;;;;;;33.58;23.72;101071.19;7398511;19;20592;-91
2023/12/15 02:00:52;;;;;;;0.10;0.00;;;;;;;33.48;23.98;101073.31;7393720;19;20049;-90
2023/12/15 02:03:18;;;;;;;0.00;0.00;;;;;;;33.60;23.65;101080.03;7395755;19;20074;-89
2023/12/15 02:05:45;;;;;;;0.10;0.10;;;;;;;33.69;23.71;101085.03;7396625;19;20022;-91
2023/12/15 02:08:11;;;;;;;0.47;0.47;;;;;;;33.63;23.70;101079.56;7395633;19;20011;-90
2023/12/15 02:10:38;;;;;;;3.35;0.45;;;;;;;33.80;23.41;101081.53;7395755;19;20023;-90
2023/12/15 02:13:05;;;;;;;0.10;0.10;;;;;;;33.82;23.60;101081.69;7397349;19;20634;-90
2023/12/15 02:15:31;;;;;;;6.10;1.45;;;;;;;33.73;23.46;101099.78;7396858;19;20413;-90
2023/12/15 02:17:57;;;;;;;0.10;0.10;;;;;;;33.73;23.67;101090.34;7395814;19;20006;-90
2023/12/15 02:20:23;;;;;;;3.50;0.50;;;;;;;33.69;23.64;101099.50;7397190;19;20010;-89
2023/12/15 02:22:50;;;;;;;6.03;0.47;;;;;;;33.50;23.55;101090.81;7397835;19;20007;-90
2023/12/15 02:25:16;;;;;;;0.45;0.45;;;;;;;33.33;23.93;101096.72;7397549;19;20472;-90
2023/12/15 02:27:42;;;;;;;0.73;0.73;;;;;;;33.58;23.58;101105.88;7396262;19;20034;-89
2023/12/15 02:30:08;;;;;;;0.17;0.17;;;;;;;33.56;23.65;101097.06;7400904;19;20011;-89
2023/12/15 02:32:34;;;;;;;0.10;0.00;;;;;;;33.56;23.63;101102.84;7396547;19;20018;-89
2023/12/15 02:35:01;;;;;;;0.10;0.00;;;;;;;33.61;23.78;101099.63;7395662;19;20090;-89
2023/12/15 02:37:27;;;;;;;0.10;0.10;;;;;;;33.67;23.45;101108.00;7393952;19;20018;-89
2023/12/15 02:39:53;;;;;;;0.10;0.10;;;;;;;33.51;23.22;101106.78;7396470;19;20039;-90
2023/12/15 02:42:20;;;;;;;5.03;0.52;;;;;;;33.53;23.49;101098.25;7396601;19;20034;-89
2023/12/15 02:44:46;;;;;;;1.35;0.73;;;;;;;33.68;23.31;101103.72;7397029;19;20444;-90
2023/12/15 02:47:12;;;;;;;0.22;0.22;;;;;;;33.65;23.36;101098.41;7396312;19;20033;-90
2023/12/15 02:49:39;;;;;;;0.90;0.55;;;;;;;33.60;23.00;101098.13;7398959;19;20007;-90
2023/12/15 02:52:06;;;;;;;1.38;0.32;;;;;;;33.63;23.14;101096.88;7396655;19;20010;-90
2023/12/15 02:54:35;;;;;;;0.10;0.10;;;;;;;33.46;23.34;101093.38;7393513;19;20017;-90
2023/12/15 02:57:02;;;;;;;5.82;1.55;;;;;;;33.39;23.30;101097.19;7394355;19;20010;-89
2023/12/15 02:59:28;;;;;;;1.65;0.57;;;;;;;33.33;23.32;101097.47;7396146;19;20022;-89
2023/12/15 03:01:54;;;;;;;0.93;0.93;;;;;;;33.30;23.64;101092.16;7397091;19;20410;-90
2023/12/15 03:04:20;;;;;;;0.32;0.32;;;;;;;33.50;23.34;101096.59;7394074;19;20008;-89
2023/12/15 03:06:47;;;;;;;0.17;0.17;;;;;;;33.51;23.52;101092.34;7395404;19;20021;-90
2023/12/15 03:09:13;;;;;;;0.10;0.10;;;;;;;33.49;23.39;101109.50;7395242;19;20011;-90
2023/12/15 03:11:39;;;;;;;0.10;0.10;;;;;;;33.51;23.44;101101.78;7394643;19;20018;-90
2023/12/15 03:14:05;;;;;;;0.10;0.10;;;;;;;33.51;23.18;101101.00;7394397;19;20061;-90
2023/12/15 03:16:31;;;;;;;0.10;0.00;;;;;;;33.27;23.57;101107.78;7394857;19;20021;-90
2023/12/15 03:18:57;;;;;;;0.10;0.10;;;;;;;33.10;23.25;101119.47;7396150;19;20465;-90
2023/12/15 03:21:23;;;;;;;3.60;1.48;;;;;;;33.00;23.51;101110.03;7398520;19;20018;-89
2023/12/15 03:23:50;;;;;;;0.10;0.10;;;;;;;33.00;23.80;101121.59;7395049;19;20014;-90
2023/12/15 03:26:16;;;;;;;0.10;0.10;;;;;;;33.14;23.43;101119.78;7393914;19;20022;-90
2023/12/15 03:28:42;;;;;;;0.13;0.13;;;;;;;33.24;22.91;101123.47;7392949;19;20070;-90
2023/12/15 03:31:08;;;;;;;0.10;0.10;;;;;;;33.21;23.20;101125.44;7397586;19;20010;-90
2023/12/15 03:33:35;;;;;;;4.15;0.93;;;;;;;33.28;23.13;101138.22;7395879;19;20002;-90
2023/12/15 03:36:03;;;;;;;0.20;0.20;;;;;;;33.18;23.08;101143.22;7395207;19;20014;-90
2023/12/15 03:38:29;;;;;;;1.27;0.30;;;;;;;33.23;23.51;101136.38;7395506;19;20010;-90
2023/12/15 03:40:55;;;;;;;0.20;0.20;;;;;;;33.21;23.35;101136.22;7396507;19;20069;-90
2023/12/15 03:43:21;;;;;;;2.45;1.05;;;;;;;33.12;22.99;101131.19;7397424;19;20042;-90
2023/12/15 03:45:47;;;;;;;0.10;0.10;;;;;;;33.06;23.24;101142.25;7395112;19;20006;-90
2023/12/15 03:48:14;;;;;;;1.65;0.95;;;;;;;33.03;23.28;101131.94;7393379;19;20006;-90
2023/12/15 03:50:40;;;;;;;1.95;0.60;;;;;;;33.02;23.13;101136.19;7393592;19;20461;-91
2023/12/15 03:53:06;;;;;;;3.42;0.32;;;;;;;33.16;23.15;101135.16;7393871;19;20011;-90
2023/12/15 03:55:32;;;;;;;0.30;0.30;;;;;;;33.30;23.08;101132.59;7395854;19;20012;-90
2023/12/15 03:57:58;;;;;;;5.97;1.02;;;;;;;33.38;23.17;101124.53;7392939;19;20021;-90
2023/12/15 04:00:24;;;;;;;0.10;0.10;;;;;;;33.37;23.15;101117.25;7393529;19;20060;-90
2023/12/15 04:02:50;;;;;;;2.25;0.57;;;;;;;33.17;23.17;101128.00;7393520;19;20461;-91
2023/12/15 04:05:17;;;;;;;0.38;0.20;;;;;;;33.10;23.28;101125.25;7392281;19;20018;-90
2023/12/15 04:07:43;;;;;;;0.10;0.10;;;;;;;33.11;23.19;101126.78;7393304;19;20078;-91
2023/12/15 04:10:09;;;;;;;0.65;0.65;;;;;;;33.03;23.37;101126.91;7391071;19;20027;-91
2023/12/15 04:12:35;;;;;;;2.70;0.30;;;;;;;33.12;23.23;101110.97;7392535;19;20006;-91
2023/12/15 04:15:01;;;;;;;0.10;0.10;;;;;;;33.17;23.28;101118.59;7393029;19;20369;-90
2023/12/15 04:17:28;;;;;;;5.78;0.47;;;;;;;33.12;23.17;101110.97;7395193;19;20018;-91
2023/12/15 04:19:54;;;;;;;0.10;0.10;;;;;;;33.17;23.21;101121.47;7394763;19;20018;-91
2023/12/15 04:22:22;;;;;;;0.55;0.55;;;;;;;33.22;23.22;101123.31;7393108;19;20021;-91
2023/12/15 04:24:49;;;;;;;0.40;0.35;;;;;;;33.30;23.30;101112.38;7392543;19;20028;-91
2023/12/15 04:27:15;;;;;;;0.10;0.10;;;;;;;33.39;23.24;101111.63;7392774;19;20006;-90
2023/12/15 04:29:41;;;;;;;10.90;0.60;;;;;;;33.48;23.53;101113.75;7391742;19;20017;-90
2023/12/15 04:32:08;;;;;;;0.45;0.45;;;;;;;33.49;23.42;101118.16;7392456;19;20088;-90
2023/12/15 04:34:34;;;;;;;0.22;0.22;;;;;;;33.47;23.51;101123.78;7390853;19;20066;-90
2023/12/15 04:37:00;;;;;;;0.52;0.32;;;;;;;33.36;23.42;101135.94;7391638;19;20021;-90
2023/12/15 04:39:27;;;;;;;0.50;0.50;;;;;;;33.58;22.89;101129.00;7392185;19;20472;-90
2023/12/15 04:41:53;;;;;;;0.10;0.10;;;;;;;33.64;22.98;101112.09;7394921;19;20011;-90
2023/12/15 04:44:19;;;;;;;0.63;0.35;;;;;;;33.72;23.12;101129.31;7392467;19;20046;-89
2023/12/15 04:46:45;;;;;;;0.65;0.65;;;;;;;33.77;22.71;101134.00;7392920;19;20011;-90
2023/12/15 04:49:11;;;;;;;14.88;1.02;;;;;;;33.75;23.15;101130.97;7392078;19;20010;-90
2023/12/15 04:51:37;;;;;;;0.43;0.30;;;;;;;33.67;23.17;101153.47;7391348;19;20375;-91
2023/12/15 04:54:03;;;;;;;0.55;0.43;;;;;;;33.60;23.12;101155.16;7391572;19;20070;-90
2023/12/15 04:56:29;;;;;;;0.40;0.10;;;;;;;33.37;23.09;101160.59;7390150;19;20013;-90
2023/12/15 04:58:56;;;;;;;0.10;0.03;;;;;;;33.24;23.20;101164.66;7391606;19;20070;-90
2023/12/15 05:01:24;;;;;;;0.30;0.30;;;;;;;33.30;23.39;101173.03;7390197;19;20066;-90
2023/12/15 05:03:50;;;;;;;0.20;0.10;;;;;;;33.17;23.20;101182.13;7390649;19;20046;-90
2023/12/15 05:06:21;;;;;;;0.13;0.13;;;;;;;33.17;23.22;101187.88;7390098;19;20014;-90
2023/12/15 05:08:48;;;;;;;0.50;0.43;;;;;;;33.34;22.92;101185.66;7389984;19;20014;-90
2023/12/15 05:11:15;;;;;;;0.52;0.32;;;;;;;33.39;22.87;101184.63;7390768;19;20006;-91
2023/12/15 05:13:42;;;;;;;1.08;0.30;;;;;;;33.04;22.70;101189.06;7390648;19;20117;-90
2023/12/15 05:16:08;;;;;;;0.10;0.10;;;;;;;32.84;22.80;101179.53;7392956;19;20014;-90
2023/12/15 05:18:35;;;;;;;0.10;0.10;;;;;;;32.86;23.01;101181.81;7390995;19;20014;-91
2023/12/15 05:21:01;;;;;;;7.18;0.90;;;;;;;32.79;23.09;101177.69;7389478;19;20021;-91
2023/12/15 05:23:27;;;;;;;0.40;0.40;;;;;;;32.57;23.50;101178.78;7389271;19;20002;-90
2023/12/15 05:25:53;;;;;;;0.10;0.10;;;;;;;32.67;22.97;101165.19;7390168;19;20477;-91
2023/12/15 05:28:20;;;;;;;0.35;0.35;;;;;;;32.80;22.94;101167.69;7391566;19;20015;-90
2023/12/15 05:30:46;;;;;;;0.10;0.10;;;;;;;32.62;23.20;101169.13;7395104;19;20021;-91
2023/12/15 05:33:12;;;;;;;0.20;0.20;;;;;;;32.61;23.19;101187.03;7389561;19;20011;-91
2023/12/15 05:35:38;;;;;;;0.13;0.13;;;;;;;32.53;22.78;101195.03;7389436;19;20034;-90
2023/12/15 05:38:04;;;;;;;0.10;0.10;;;;;;;32.65;22.56;101201.78;7391131;19;20007;-91
2023/12/15 05:40:30;;;;;;;0.10;0.10;;;;;;;32.70;22.79;101204.38;7389610;19;20224;-91
2023/12/15 05:42:57;;;;;;;0.45;0.45;;;;;;;32.75;22.77;101222.78;7390447;19;20035;-90
2023/12/15 05:45:23;;;;;;;0.10;0.10;;;;;;;32.78;23.14;101216.59;7390175;19;20015;-91
2023/12/15 05:47:49;;;;;;;0.10;0.10;;;;;;;32.73;22.61;101208.97;7390396;19;20002;-90
2023/12/15 05:50:15;;;;;;;0.10;0.10;;;;;;;32.82;22.80;101205.38;7391907;19;20017;-91
2023/12/15 05:52:42;;;;;;;0.60;0.50;;;;;;;32.89;23.04;101216.03;7390634;19;20006;-89
2023/12/15 05:55:08;;;;;;;0.70;0.35;;;;;;;32.92;22.90;101201.75;7393429;19;20013;-89
2023/12/15 05:57:34;;;;;;;0.10;0.10;;;;;;;32.88;22.56;101208.72;7389742;19;20003;-88
2023/12/15 06:00:00;;;;;;;0.10;0.10;;;;;;;32.81;22.94;101203.81;7389400;19;20030;-89
2023/12/15 06:02:26;;;;;;;1.10;0.55;;;;;;;32.78;22.88;101196.38;7389008;19;20070;-88
2023/12/15 06:04:53;;;;;;;0.10;0.10;;;;;;;32.83;22.94;101198.22;7389630;19;20062;-87
2023/12/15 06:07:19;;;;;;;0.10;0.10;;;;;;;32.86;23.05;101207.81;7388172;19;20006;-87
2023/12/15 06:09:45;;;;;;;0.68;0.50;;;;;;;32.94;22.50;101216.34;7391648;19;20014;-88
2023/12/15 06:12:12;;;;;;;0.80;0.22;;;;;;;33.01;22.64;101221.28;7389736;19;20023;-88
2023/12/15 06:14:38;;;;;;;1.50;1.40;;;;;;;32.96;22.98;101230.94;7388197;19;20043;-88
2023/12/15 06:17:08;;;;;;;0.32;0.25;;;;;;;32.96;22.54;101230.94;7389692;19;20007;-88
2023/12/15 06:19:39;;;;;;;0.10;0.10;;;;;;;32.86;22.95;101228.78;7389756;19;20011;-89
2023/12/15 06:22:06;;;;;;;0.20;0.20;;;;;;;32.80;22.44;101234.06;7392455;19;20011;-89
2023/12/15 06:24:32;;;;;;;0.10;0.10;;;;;;;32.82;22.93;101231.34;7391722;19;20021;-87
2023/12/15 06:26:58;;;;;;;13.05;1.17;;;;;;;32.74;22.61;101250.13;7388888;19;20099;-88
2023/12/15 06:29:24;;;;;;;0.10;0.10;;;;;;;32.70;22.42;101256.31;7392393;19;20365;-89
2023/12/15 06:31:50;;;;;;;0.40;0.40;;;;;;;32.65;22.53;101265.25;7391478;19;20112;-89
2023/12/15 06:34:16;;;;;;;0.45;0.45;;;;;;;32.55;22.62;101278.88;7399256;19;20011;-88
2023/12/15 06:36:43;;;;;;;0.20;0.20;;;;;;;32.60;22.40;101275.72;7395199;19;20070;-88
2023/12/15 06:39:09;;;;;;;0.10;0.10;;;;;;;32.55;22.52;101285.38;7397574;19;20010;-88
2023/12/15 06:41:35;;;;;;;0.17;0.17;;;;;;;32.59;22.79;101300.16;7399781;19;20041;-88
2023/12/15 06:44:02;;;;;;;0.10;0.10;;;;;;;32.65;23.03;101312.19;7401638;19;20022;-89
2023/12/15 06:46:28;;;;;;;0.10;0.10;;;;;;;32.77;23.01;101307.41;7395377;19;20011;-87
2023/12/15 06:48:54;;;;;;;0.10;0.10;;;;;;;32.87;22.98;101305.34;7396885;19;20006;-89
2023/12/15 06:51:20;;;;;;;27.58;1.20;;;;;;;32.95;22.65;101301.56;7396766;19;20019;-88
2023/12/15 06:53:46;;;;;;;13.55;2.30;;;;;;;33.08;22.77;101307.00;7398354;19;20066;-90
2023/12/15 06:56:13;;;;;;;35.70;7.97;;;;;;;33.17;22.78;101309.94;7397364;19;20018;-87
2023/12/15 06:58:39;;;;;;;56.30;9.85;;;;;;;33.25;23.13;101313.47;7398532;19;20014;-89
2023/12/15 07:01:05;;;;;;;11.88;4.47;;;;;;;33.33;22.87;101327.81;7398930;19;20022;-90
2023/12/15 07:03:31;;;;;;;9.95;4.25;;;;;;;33.39;22.74;101325.41;7395844;19;20027;-89
2023/12/15 07:05:57;;;;;;;20.40;3.65;;;;;;;33.43;22.72;101331.50;7397045;19;20014;-89
2023/12/15 07:08:23;;;;;;;4.88;1.85;;;;;;;33.54;23.13;101339.63;7396071;19;20014;-88
2023/12/15 07:10:50;;;;;;;1.48;1.27;;;;;;;33.57;23.02;101347.06;7397518;19;20014;-88
2023/12/15 07:13:16;;;;;;;1.67;0.90;;;;;;;33.70;22.83;101366.88;7396021;19;20014;-89
2023/12/15 07:15:42;;;;;;;8.88;1.10;;;;;;;33.67;22.93;101379.69;7397113;19;20009;-89
2023/12/15 07:18:08;;;;;;;18.90;1.63;;;;;;;33.68;22.95;101381.19;7396218;19;20014;-89
2023/12/15 07:20:35;;;;;;;12.68;2.28;;;;;;;33.77;23.01;101392.03;7395830;19;20006;-89
2023/12/15 07:23:01;;;;;;;4.55;1.40;;;;;;;33.81;23.12;101392.34;7395887;19;20036;-88
2023/12/15 07:25:27;;;;;;;12.93;1.67;;;;;;;33.93;23.23;101413.53;7395919;19;20039;-88
2023/12/15 07:27:53;;;;;;;3.45;1.15;;;;;;;33.69;22.94;101402.94;7397336;19;20014;-88
2023/12/15 07:30:21;;;;;;;1.55;1.45;;;;;;;33.41;23.14;101403.56;7394561;19;20010;-89
2023/12/15 07:32:47;;;;;;;3.85;0.95;;;;;;;33.47;23.56;101398.25;7399521;19;20010;-88
2023/12/15 07:35:13;;;;;;;7.82;1.95;;;;;;;33.60;23.46;101386.34;7398333;19;20476;-88
2023/12/15 07:37:39;;;;;;;3.40;1.70;;;;;;;33.67;23.41;101397.00;7394206;19;20006;-88
2023/12/15 07:40:06;;;;;;;1.27;0.80;;;;;;;33.63;23.18;101402.47;7396476;19;20499;-87
2023/12/15 07:42:32;;;;;;;2.38;2.15;;;;;;;33.81;23.25;101408.94;7395340;19;20050;-88
2023/12/15 07:44:59;;;;;;;0.90;0.65;;;;;;;33.82;23.37;101405.44;7393177;19;20378;-88
2023/12/15 07:47:25;;;;;;;0.88;0.70;;;;;;;33.91;23.22;101403.94;7394021;19;20014;-87
2023/12/15 07:49:51;;;;;;;2.10;1.45;;;;;;;33.96;23.27;101412.31;7396603;19;20010;-88
2023/12/15 07:52:17;;;;;;;2.67;2.22;;;;;;;33.91;23.58;101410.50;7395128;19;20464;-87
2023/12/15 07:54:44;;;;;;;0.80;0.57;;;;;;;33.90;23.38;101408.97;7394706;19;20010;-88
2023/12/15 07:57:10;;;;;;;2.20;1.35;;;;;;;33.93;23.29;101413.53;7395973;19;20364;-87
2023/12/15 07:59:36;;;;;;;6.32;1.05;;;;;;;34.03;23.26;101420.13;7392817;19;20014;-88
2023/12/15 08:02:03;;;;;;;0.10;0.10;;;;;;;33.96;23.18;101420.25;7394680;19;20010;-88
2023/12/15 08:04:30;;;;;;;6.20;1.45;;;;;;;33.86;23.58;101408.66;7394064;19;20006;-87
2023/12/15 08:06:56;;;;;;;0.10;0.10;;;;;;;33.81;23.35;101411.84;7390426;19;20465;-87
2023/12/15 08:09:22;;;;;;;1.20;0.38;;;;;;;33.88;23.51;101420.38;7392189;19;20021;-87
2023/12/15 08:11:48;;;;;;;0.20;0.13;;;;;;;34.04;23.23;101413.00;7395506;19;20082;-88
2023/12/15 08:14:14;;;;;;;1.95;0.10;;;;;;;34.01;23.39;101407.66;7394583;19;20010;-88
2023/12/15 08:16:41;;;;;;;4.90;1.10;;;;;;;34.07;23.41;101405.22;7391063;19;20013;-87
2023/12/15 08:19:08;;;;;;;0.30;0.30;;;;;;;34.23;23.58;101413.03;7394244;19;20062;-87
2023/12/15 08:21:34;;;;;;;0.20;0.20;;;;;;;34.25;23.19;101410.28;7393615;19;20025;-87
2023/12/15 08:24:00;;;;;;;0.45;0.40;;;;;;;34.21;23.20;101412.88;7393035;19;20520;-88
2023/12/15 08:26:27;;;;;;;0.85;0.40;;;;;;;34.28;23.35;101414.13;7391050;19;20018;-87
2023/12/15 08:28:54;;;;;;;1.75;0.32;;;;;;;34.25;23.27;101412.41;7395926;19;20038;-88
2023/12/15 08:31:23;;;;;;;3.78;1.45;;;;;;;34.27;23.61;101407.56;7392246;19;20074;-87
2023/12/15 08:33:51;;;;;;;2.72;1.13;;;;;;;34.21;23.39;101410.00;7391558;19;20018;-88
2023/12/15 08:36:17;;;;;;;0.55;0.55;;;;;;;34.13;23.23;101415.13;7391800;19;20014;-87
2023/12/15 08:38:43;;;;;;;5.90;1.52;;;;;;;37.07;21.56;101413.25;7391640;19;20006;-88
2023/12/15 08:41:10;;;;;;;9.85;0.93;;;;;;;37.78;21.39;101409.84;7392699;19;20023;-88
2023/12/15 08:43:36;;;;;;;11.98;2.00;;;;;;;37.92;20.95;101418.72;7392834;19;20406;-88
2023/12/15 08:46:03;;;;;;;9.30;1.38;;;;;;;38.12;21.00;101414.13;7394029;19;20043;-88
2023/12/15 08:48:29;;;;;;;1.98;0.68;;;;;;;38.19;20.86;101421.06;7391959;19;20019;-88
2023/12/15 08:50:56;;;;;;;7.28;1.80;;;;;;;38.68;20.54;101420.50;7390193;19;20019;-88
2023/12/15 08:53:22;;;;;;;0.70;0.70;;;;;;;39.45;20.03;101422.03;7390183;19;20014;-88
2023/12/15 08:55:48;;;;;;;1.08;0.25;;;;;;;39.48;20.02;101438.25;7391323;19;20029;-88
2023/12/15 08:58:15;;;;;;;0.10;0.10;;;;;;;39.68;20.17;101439.38;7392337;19;20010;-88
2023/12/15 09:00:42;;;;;;;0.52;0.52;;;;;;;40.02;19.80;101444.22;7389419;19;20014;-88
2023/12/15 09:03:08;;;;;;;3.10;0.47;;;;;;;39.95;20.04;101448.16;7392586;19;20011;-88
2023/12/15 09:05:34;;;;;;;0.22;0.17;;;;;;;39.88;19.54;101463.81;7389406;19;20010;-88
2023/12/15 09:08:02;;;;;;;2.22;1.75;;;;;;;39.85;19.68;101476.78;7389890;19;20457;-88
2023/12/15 09:10:33;;;;;;;9.13;0.82;;;;;;;39.90;19.76;101486.53;7391671;19;20359;-88
2023/12/15 09:13:02;;;;;;;;;;;;;;;40.34;19.39;101479.44;7390452;19;20031;-88
2023/12/15 09:15:29;;;;;;;0.75;0.68;;;;;;;39.85;19.80;101481.88;7390257;19;20260;-92
2023/12/15 09:17:55;;;;;;;0.47;0.47;;;;;;;39.41;19.84;101485.97;7390196;19;20025;-91
2023/12/15 09:20:23;;;;;;;0.28;0.13;;;;;;;39.37;20.32;101503.22;7388638;19;20035;-87
2023/12/15 09:22:50;;;;;;;1.17;0.85;;;;;;;39.34;20.31;101498.66;7391284;19;20025;-90
2023/12/15 09:25:16;;;;;;;4.53;0.63;;;;;;;39.20;20.39;101503.69;7389586;19;20059;-84
2023/12/15 09:27:42;;;;;;;1.10;0.22;;;;;;;39.15;20.20;101513.59;7388112;19;20027;-85
2023/12/15 09:30:09;;;;;;;4.50;0.35;;;;;;;28.41;26.86;101532.88;7388308;19;20585;-85
2023/12/15 09:32:35;;;;;;;3.28;1.10;;;;;;;22.85;33.88;101544.53;7389278;19;20014;-83
2023/12/15 09:35:01;;;;;;;1.40;0.85;;;;;;;20.79;37.23;101553.88;7392724;19;20375;-88
2023/12/15 09:37:27;;;;;;;0.47;0.17;;;;;;;20.69;38.08;101546.84;7390066;19;20007;-88
2023/12/15 09:39:54;;;;;;;15.23;0.47;;;;;;;20.74;38.20;101561.06;7390186;19;20380;-92
2023/12/15 09:42:22;;;;;;;3.13;0.63;;;;;;;20.49;39.41;101559.06;7390100;19;20014;-90
2023/12/15 09:44:51;;;;;;;2.45;1.13;;;;;;;20.58;39.90;101567.38;7391416;19;20389;-91
2023/12/15 09:47:21;;;;;;;0.75;0.57;;;;;;;20.31;40.73;101577.19;7391387;19;20034;-89
2023/12/15 09:49:51;;;;;;;7.97;0.90;;;;;;;20.11;41.50;101574.44;7392951;19;20015;-91
2023/12/15 09:52:19;;;;;;;4.15;0.80;;;;;;;20.01;42.13;101584.34;7389063;19;20022;-90
2023/12/15 09:54:45;;;;;;;0.57;0.57;;;;;;;19.30;44.26;101575.78;7391444;19;20006;-91
2023/12/15 09:57:13;;;;;;;3.00;1.08;;;;;;;18.48;47.55;101578.97;7391782;19;20078;-91
2023/12/15 09:59:42;;;;;;;0.15;0.15;;;;;;;18.03;50.31;101585.88;7389273;19;20010;-91
2023/12/15 10:02:09;;;;;;;2.58;0.40;;;;;;;18.15;52.52;101598.91;7389712;19;20078;-91
2023/12/15 10:04:35;;;;;;;7.95;1.10;;;;;;;18.10;54.15;101599.59;7389061;19;20021;-91
2023/12/15 10:07:02;;;;;;;4.45;0.82;;;;;;;18.63;53.12;101607.94;7392013;19;20030;-90
2023/12/15 10:09:28;;;;;;;4.18;1.23;;;;;;;18.50;54.20;101601.84;7397425;19;20035;-90
2023/12/15 10:11:54;;;;;;;0.50;0.50;;;;;;;18.37;55.99;101601.34;7397849;19;20517;-91
2023/12/15 10:14:21;;;;;;;0.52;0.52;;;;;;;18.18;57.28;101604.38;7397448;19;20481;-89
2023/12/15 10:16:48;;;;;;;0.15;0.15;;;;;;;18.11;58.84;101610.38;7398278;19;20010;-91
2023/12/15 10:19:14;;;;;;;0.22;0.22;;;;;;;18.29;59.18;101617.09;7398339;19;20010;-90
2023/12/15 10:21:40;;;;;;;0.45;0.25;;;;;;;18.01;61.03;101617.38;7394580;19;20002;-91
2023/12/15 10:24:20;;;;;;;1.27;0.22;;;;;;;19.15;56.39;101618.25;7398343;19;20018;-91
2023/12/15 10:26:47;;;;;;;7.97;0.87;;;;;;;19.19;55.87;101610.31;7395592;19;20361;-87
2023/12/15 10:29:14;;;;;;;2.47;0.50;;;;;;;20.05;54.38;101618.09;7398878;19;20271;-91
2023/12/15 10:31:41;;;;;;;0.10;0.10;;;;;;;19.23;55.25;101619.38;7397268;19;20007;-90
2023/12/15 10:34:08;;;;;;;0.40;0.40;;;;;;;21.04;52.19;101613.28;7398048;19;20034;-90
2023/12/15 10:36:40;;;;;;;0.50;0.50;;;;;;;20.34;52.34;101618.66;7396534;19;20002;-90
2023/12/15 10:39:07;;;;;;;2.63;0.40;;;;;;;20.06;51.79;101626.06;7396638;19;20051;-91
2023/12/15 10:41:34;;;;;;;3.10;1.13;;;;;;;19.30;54.40;101624.59;7396481;19;20045;-91
2023/12/15 10:44:01;;;;;;;6.45;0.70;;;;;;;18.81;56.94;101635.97;7397887;19;20006;-90
2023/12/15 10:46:28;;;;;;;1.48;0.68;;;;;;;18.93;57.45;101635.63;7394306;19;20006;-90
2023/12/15 10:48:54;;;;;;;7.75;0.98;;;;;;;18.83;58.95;101642.69;7398422;19;20014;-90
2023/12/15 10:51:23;;;;;;;2.67;0.90;;;;;;;19.40;57.42;101639.41;7396853;19;20002;-90
2023/12/15 10:53:51;;;;;;;3.20;0.30;;;;;;;20.22;55.73;101644.50;7397076;19;20378;-91
2023/12/15 10:56:18;;;;;;;0.25;0.25;;;;;;;20.61;53.46;101637.16;7393838;19;20014;-90
2023/12/15 10:58:44;;;;;;;0.75;0.63;;;;;;;20.96;53.71;101640.47;7396243;19;20012;-90
2023/12/15 11:01:12;;;;;;;0.32;0.20;;;;;;;19.36;58.12;101648.09;7395679;19;20041;-92
2023/12/15 11:03:41;;;;;;;7.22;0.45;;;;;;;19.48;56.17;101649.81;7395065;19;20003;-90
2023/12/15 11:06:08;;;;;;;3.85;1.13;;;;;;;18.88;58.52;101652.50;7394265;19;20014;-91
2023/12/15 11:08:35;;;;;;;5.88;0.75;;;;;;;19.39;57.97;101646.31;7396571;19;20022;-90
2023/12/15 11:11:07;;;;;;;0.88;0.40;;;;;;;19.68;56.51;101646.94;7397155;19;20015;-91
2023/12/15 11:13:53;;;;;;;2.28;0.50;;;;;;;20.62;54.07;101652.84;7396292;19;20010;-91
2023/12/15 11:16:23;;;;;;;1.20;0.85;;;;;;;20.12;54.85;101657.25;7395145;19;20002;-90
2023/12/15 11:18:53;;;;;;;0.30;0.20;;;;;;;18.63;59.67;101661.56;7393137;19;20026;-90
2023/12/15 11:21:20;;;;;;;4.63;0.43;;;;;;;18.81;60.27;101664.97;7396535;19;20018;-90